Time;durP1;ratioP1;P1;durP2;ratioP2;P2;SDS_P1;SDS_P2;PMS_P1;PMS_P2;Temp;Humidity;BMP_temperature;BMP_pressure;BME280_temperature;BME280_humidity;BME280_pressure;Samples;Min_cycle;Max_cycle;Signal;HPM_P1;HPM_P2
2023/06/23 00:00:30;;;;;;;7.55;6.07;;;;;;;17.58;100.00;101755.06;5217852;28;20059;-68
2023/06/23 00:03:02;;;;;;;7.30;6.28;;;;;;;17.53;100.00;101750.22;5216422;28;20032;-68
2023/06/23 00:05:33;;;;;;;7.25;6.57;;;;;;;17.56;100.00;101763.19;5214631;28;20025;-71
2023/06/23 00:08:05;;;;;;;8.85;6.60;;;;;;;17.52;100.00;101772.41;5218404;28;20482;-69
2023/06/23 00:10:36;;;;;;;7.93;6.70;;;;;;;17.47;100.00;101770.25;5212402;28;20101;-71
2023/06/23 00:13:08;;;;;;;7.18;6.38;;;;;;;17.53;100.00;101774.06;5215019;28;20048;-68
2023/06/23 00:15:39;;;;;;;8.35;7.00;;;;;;;17.41;100.00;101770.84;5210956;28;20034;-69
2023/06/23 00:18:11;;;;;;;8.05;7.25;;;;;;;17.44;100.00;101780.31;5221003;28;20044;-68
2023/06/23 00:20:42;;;;;;;8.52;7.70;;;;;;;17.51;100.00;101781.38;5210806;28;20592;-71
2023/06/23 00:23:13;;;;;;;10.57;7.68;;;;;;;17.41;100.00;101793.84;5210737;28;20042;-67
2023/06/23 00:25:44;;;;;;;8.65;7.55;;;;;;;17.47;100.00;101786.13;5223639;28;20108;-70
2023/06/23 00:28:16;;;;;;;9.60;7.75;;;;;;;17.42;100.00;101785.75;5216993;28;20029;-68
2023/06/23 00:30:47;;;;;;;8.77;7.97;;;;;;;17.39;100.00;101788.72;5216481;28;20038;-68
2023/06/23 00:33:19;;;;;;;8.82;8.02;;;;;;;17.38;100.00;101791.50;5216578;28;20022;-67
2023/06/23 00:35:51;;;;;;;9.80;8.80;;;;;;;17.34;100.00;101801.56;5217795;28;20121;-67
2023/06/23 00:38:25;;;;;;;10.73;8.32;;;;;;;17.37;100.00;101803.09;5224200;28;20026;-68
2023/06/23 00:40:56;;;;;;;12.10;8.63;;;;;;;17.21;100.00;101807.25;5215413;28;20544;-68
2023/06/23 00:43:30;;;;;;;11.40;9.07;;;;;;;17.27;100.00;101806.66;5218534;28;20029;-68
2023/06/23 00:46:16;;;;;;;10.23;9.20;;;;;;;17.52;100.00;101805.03;5215393;28;20680;-69
2023/06/23 00:48:48;;;;;;;10.05;8.93;;;;;;;17.23;100.00;101805.25;5214722;28;20073;-67
2023/06/23 00:51:22;;;;;;;10.73;9.63;;;;;;;17.25;100.00;101819.19;5216784;28;20109;-69
2023/06/23 00:53:54;;;;;;;10.60;9.50;;;;;;;17.25;100.00;101816.53;5221350;28;20481;-68
2023/06/23 00:56:26;;;;;;;11.60;10.00;;;;;;;17.29;100.00;101824.19;5218659;28;20487;-67
2023/06/23 00:58:57;;;;;;;13.98;10.15;;;;;;;17.29;100.00;101824.19;5217235;28;20517;-69
2023/06/23 01:01:31;;;;;;;12.68;11.38;;;;;;;17.26;100.00;101836.75;5216719;28;20030;-68
2023/06/23 01:04:02;;;;;;;14.40;11.48;;;;;;;17.30;100.00;101839.09;5218635;28;20117;-69
2023/06/23 01:06:46;;;;;;;12.65;11.23;;;;;;;17.39;100.00;101833.75;5218827;28;20090;-68
2023/06/23 01:09:32;;;;;;;15.30;12.07;;;;;;;17.33;100.00;101846.75;5213572;28;20069;-68
2023/06/23 01:12:13;;;;;;;14.27;12.77;;;;;;;17.30;100.00;101847.03;5196680;28;20430;-67
2023/06/23 01:15:04;;;;;;;13.43;12.07;;;;;;;17.21;100.00;101857.56;5213827;28;20048;-70
2023/06/23 01:17:44;;;;;;;13.63;12.32;;;;;;;17.10;100.00;101846.34;5215339;28;20021;-68
2023/06/23 01:20:24;;;;;;;17.40;13.77;;;;;;;17.18;100.00;101862.31;5224638;28;20029;-68
2023/06/23 01:23:17;;;;;;;14.63;12.43;;;;;;;17.34;100.00;101853.72;5213277;28;20375;-68
2023/06/23 01:26:19;;;;;;;14.77;13.30;;;;;;;17.21;100.00;101846.13;5215850;28;20105;-68
2023/06/23 01:28:58;;;;;;;15.70;13.55;;;;;;;17.28;100.00;101849.84;5223348;28;20025;-70
2023/06/23 01:31:40;;;;;;;16.98;13.85;;;;;;;17.17;100.00;101842.13;5219500;28;20030;-67
2023/06/23 01:34:20;;;;;;;14.95;13.55;;;;;;;17.24;100.00;101857.25;5222361;28;20025;-69
2023/06/23 01:37:00;;;;;;;15.95;14.45;;;;;;;17.17;100.00;101863.31;5219404;28;20026;-68
2023/06/23 01:39:35;;;;;;;16.17;14.55;;;;;;;17.13;100.00;101864.59;5215557;28;20022;-69
2023/06/23 01:42:12;;;;;;;17.17;14.82;;;;;;;17.10;100.00;101870.16;5211495;28;20028;-67
2023/06/23 01:44:54;;;;;;;18.35;14.85;;;;;;;17.16;100.00;101866.91;5220662;28;20160;-69
2023/06/23 01:47:32;;;;;;;17.35;15.40;;;;;;;17.06;100.00;101869.63;5214123;28;20430;-70
2023/06/23 01:50:06;;;;;;;17.50;15.57;;;;;;;17.04;100.00;101876.88;5208238;28;20116;-68
2023/06/23 01:52:39;;;;;;;16.85;15.23;;;;;;;17.05;100.00;101875.91;5217632;28;20029;-67
2023/06/23 01:55:12;;;;;;;17.73;15.48;;;;;;;17.04;100.00;101868.94;5219898;28;20047;-67
2023/06/23 01:57:46;;;;;;;18.83;16.38;;;;;;;17.06;100.00;101872.28;5218852;28;20057;-68
2023/06/23 02:00:21;;;;;;;16.95;15.27;;;;;;;17.00;100.00;101875.50;5216630;28;20042;-69
2023/06/23 02:02:55;;;;;;;18.50;16.55;;;;;;;16.95;100.00;101888.34;5216745;28;20060;-68
2023/06/23 02:05:27;;;;;;;19.42;16.98;;;;;;;16.89;100.00;101884.47;5217456;28;20052;-68
2023/06/23 02:07:59;;;;;;;17.65;15.95;;;;;;;16.92;100.00;101883.34;5213785;28;20030;-68
2023/06/23 02:10:31;;;;;;;19.00;16.30;;;;;;;16.92;100.00;101892.13;5214396;28;20079;-68
2023/06/23 02:13:05;;;;;;;18.23;16.07;;;;;;;16.87;100.00;101899.66;5216898;28;20429;-69
2023/06/23 02:15:39;;;;;;;19.23;16.15;;;;;;;16.91;100.00;101900.22;5221907;28;20026;-68
2023/06/23 02:18:12;;;;;;;20.05;15.70;;;;;;;16.71;100.00;101908.19;5219047;28;20030;-67
2023/06/23 02:20:45;;;;;;;35.03;17.13;;;;;;;16.77;100.00;101912.09;5210796;28;20035;-69
2023/06/23 02:23:17;;;;;;;18.73;16.10;;;;;;;16.75;100.00;101914.91;5217437;28;20025;-71
2023/06/23 02:25:50;;;;;;;22.27;15.77;;;;;;;16.74;100.00;101920.31;5218425;28;20469;-68
2023/06/23 02:28:22;;;;;;;17.70;15.70;;;;;;;16.67;100.00;101916.56;5218110;28;20029;-68
2023/06/23 02:30:55;;;;;;;19.02;17.02;;;;;;;16.66;100.00;101923.66;5218447;28;20033;-67
2023/06/23 02:33:26;;;;;;;18.80;16.90;;;;;;;16.68;100.00;101924.34;5220760;28;20624;-67
2023/06/23 02:35:58;;;;;;;19.33;17.30;;;;;;;16.68;100.00;101932.28;5219649;28;20134;-70
2023/06/23 02:38:31;;;;;;;19.35;17.13;;;;;;;16.68;100.00;101944.69;5217123;28;20063;-68
2023/06/23 02:41:06;;;;;;;20.65;17.70;;;;;;;16.68;100.00;101945.53;5212742;28;20025;-68
2023/06/23 02:43:47;;;;;;;21.20;17.98;;;;;;;16.73;100.00;101947.75;5212082;28;20065;-68
2023/06/23 02:46:21;;;;;;;20.05;18.10;;;;;;;16.64;100.00;101946.78;5215342;28;20033;-68
2023/06/23 02:48:59;;;;;;;20.63;18.50;;;;;;;16.73;100.00;101951.25;5210370;28;20122;-68
2023/06/23 02:51:34;;;;;;;20.25;17.90;;;;;;;16.62;100.00;101954.03;5222286;28;20042;-68
2023/06/23 02:54:11;;;;;;;21.02;18.83;;;;;;;16.73;100.00;101950.38;5218117;28;20064;-70
2023/06/23 02:56:43;;;;;;;20.85;18.65;;;;;;;16.64;100.00;101949.44;5219627;28;20830;-68
2023/06/23 02:59:18;;;;;;;21.83;19.42;;;;;;;16.73;100.00;101960.97;5216590;28;20040;-68
2023/06/23 03:01:52;;;;;;;22.35;19.60;;;;;;;16.69;100.00;101962.22;5220785;28;20121;-68
2023/06/23 03:04:23;;;;;;;23.15;18.92;;;;;;;16.70;100.00;101961.25;5210984;28;20025;-69
2023/06/23 03:06:55;;;;;;;21.13;18.98;;;;;;;16.66;100.00;101968.63;5220974;28;20021;-67
2023/06/23 03:09:26;;;;;;;22.00;19.65;;;;;;;16.65;100.00;101968.78;5215805;28;20027;-68
2023/06/23 03:11:57;;;;;;;21.77;19.52;;;;;;;16.70;100.00;101967.38;5215524;28;20029;-68
2023/06/23 03:14:29;;;;;;;21.23;19.23;;;;;;;16.68;100.00;101961.41;5217221;28;20029;-68
2023/06/23 03:17:06;;;;;;;24.13;20.42;;;;;;;16.84;100.00;101968.78;5215003;28;20033;-67
2023/06/23 03:19:53;;;;;;;22.10;19.75;;;;;;;16.84;100.00;101968.78;5212582;28;20069;-69
2023/06/23 03:22:41;;;;;;;22.35;19.98;;;;;;;16.75;100.00;101965.19;5209940;28;20470;-68
2023/06/23 03:25:26;;;;;;;27.08;20.83;;;;;;;16.65;100.00;101968.78;5214934;28;20497;-68
2023/06/23 03:28:01;;;;;;;23.83;21.38;;;;;;;16.51;100.00;101972.69;5217625;28;20048;-67
2023/06/23 03:30:40;;;;;;;26.17;22.60;;;;;;;16.59;100.00;101967.53;5218527;28;20029;-67
2023/06/23 03:33:18;;;;;;;22.95;20.67;;;;;;;16.49;100.00;101969.38;5218383;28;20618;-68
2023/06/23 03:35:52;;;;;;;26.55;23.08;;;;;;;16.48;100.00;101983.59;5218689;28;20072;-68
2023/06/23 03:38:25;;;;;;;24.65;21.55;;;;;;;16.45;100.00;101979.41;5215628;28;20042;-68
2023/06/23 03:41:02;;;;;;;25.48;21.35;;;;;;;16.61;100.00;101978.81;5219241;28;20055;-68
2023/06/23 03:43:47;;;;;;;25.40;22.80;;;;;;;16.72;100.00;101976.00;5211820;28;20528;-68
2023/06/23 03:46:38;;;;;;;23.67;21.27;;;;;;;16.86;100.00;101972.13;5211870;28;20033;-69
2023/06/23 03:49:12;;;;;;;24.13;21.13;;;;;;;16.55;100.00;101979.38;5217067;28;20057;-71
2023/06/23 03:51:47;;;;;;;22.23;20.02;;;;;;;16.56;100.00;101978.41;5216007;28;20090;-71
2023/06/23 03:54:20;;;;;;;24.05;21.55;;;;;;;16.48;100.00;101980.94;5195498;28;20042;-68
2023/06/23 03:56:53;;;;;;;23.02;20.60;;;;;;;16.54;100.00;101975.91;5209286;28;20035;-71
2023/06/23 03:59:27;;;;;;;22.20;20.10;;;;;;;16.52;100.00;101982.31;5218786;28;20201;-69
2023/06/23 04:02:01;;;;;;;22.85;20.50;;;;;;;16.45;100.00;101989.16;5203116;28;20029;-67
2023/06/23 04:04:35;;;;;;;23.02;20.65;;;;;;;16.44;100.00;101987.47;5212085;28;20021;-67
2023/06/23 04:07:08;;;;;;;25.52;20.88;;;;;;;16.41;100.00;102001.81;5213784;28;20070;-69
2023/06/23 04:09:45;;;;;;;23.75;21.13;;;;;;;16.46;100.00;101996.94;5211398;28;20072;-71
2023/06/23 04:12:19;;;;;;;22.80;20.42;;;;;;;16.44;100.00;101988.31;5208245;28;20045;-68
2023/06/23 04:14:53;;;;;;;21.92;19.83;;;;;;;16.49;100.00;102009.88;5218286;28;20024;-68
2023/06/23 04:17:26;;;;;;;22.95;20.75;;;;;;;16.47;100.00;102005.69;5217814;28;20040;-69
2023/06/23 04:20:00;;;;;;;22.20;20.02;;;;;;;16.44;100.00;102012.13;5209624;28;20116;-68
2023/06/23 04:22:36;;;;;;;22.52;20.13;;;;;;;16.46;100.00;102015.44;5205261;28;20041;-68
2023/06/23 04:25:08;;;;;;;23.63;21.17;;;;;;;16.50;100.00;102014.19;5210433;28;20017;-68
2023/06/23 04:27:43;;;;;;;22.50;19.90;;;;;;;16.64;100.00;102026.16;5215875;28;20029;-67
2023/06/23 04:30:18;;;;;;;23.23;20.95;;;;;;;16.60;100.00;102019.50;5213631;28;20125;-70
2023/06/23 04:32:49;;;;;;;22.50;20.20;;;;;;;16.61;100.00;102026.44;5214885;28;20026;-68
2023/06/23 04:35:21;;;;;;;23.13;20.73;;;;;;;16.70;100.00;102028.22;5215851;28;20041;-68
2023/06/23 04:38:14;;;;;;;22.95;20.58;;;;;;;17.00;100.00;102026.41;5220286;28;20445;-70
2023/06/23 04:40:57;;;;;;;27.90;20.45;;;;;;;16.94;100.00;102033.13;5210325;28;20462;-69
2023/06/23 04:43:37;;;;;;;23.70;21.08;;;;;;;16.84;100.00;102044.69;5210696;28;20064;-67
2023/06/23 04:46:31;;;;;;;21.92;19.65;;;;;;;17.05;100.00;102040.06;5217267;28;20033;-70
2023/06/23 04:49:07;;;;;;;22.00;19.70;;;;;;;16.79;100.00;102039.84;5212168;28;20402;-69
2023/06/23 04:51:43;;;;;;;23.10;20.48;;;;;;;16.80;100.00;102035.38;5208249;28;20063;-68
2023/06/23 04:54:20;;;;;;;26.10;22.90;;;;;;;16.86;100.00;102035.66;5208443;28;20120;-67
2023/06/23 04:57:01;;;;;;;27.08;22.50;;;;;;;16.86;100.00;102029.50;5212506;28;20026;-69
2023/06/23 04:59:37;;;;;;;27.02;21.65;;;;;;;16.89;100.00;102039.81;5214109;28;20465;-69
2023/06/23 05:02:11;;;;;;;26.83;22.52;;;;;;;16.96;100.00;102041.72;5210631;28;20910;-69
2023/06/23 05:04:43;;;;;;;25.35;22.35;;;;;;;17.01;100.00;102054.56;5207641;28;20103;-68
2023/06/23 05:07:17;;;;;;;30.10;24.00;;;;;;;17.07;100.00;102061.94;5217342;28;20439;-69
2023/06/23 05:09:51;;;;;;;26.80;24.00;;;;;;;17.19;100.00;102067.88;5207748;28;20026;-69
2023/06/23 05:12:24;;;;;;;28.02;25.02;;;;;;;17.25;100.00;102068.16;5213817;28;20153;-69
2023/06/23 05:14:59;;;;;;;26.98;24.33;;;;;;;17.32;100.00;102068.41;5207544;28;20030;-69
2023/06/23 05:17:34;;;;;;;29.55;26.35;;;;;;;17.33;100.00;102063.94;5214014;28;20025;-68
2023/06/23 05:20:09;;;;;;;26.88;24.13;;;;;;;17.40;100.00;102065.88;5208534;28;20030;-68
2023/06/23 05:22:43;;;;;;;29.05;25.98;;;;;;;17.43;100.00;102076.19;5211580;28;20387;-69
2023/06/23 05:25:18;;;;;;;29.30;26.20;;;;;;;17.55;100.00;102078.66;5210286;28;20041;-68
2023/06/23 05:27:57;;;;;;;29.77;26.60;;;;;;;17.51;100.00;102076.28;5217255;28;20116;-68
2023/06/23 05:30:29;;;;;;;30.05;26.70;;;;;;;17.60;100.00;102085.19;5214279;28;20477;-70
2023/06/23 05:33:02;;;;;;;29.23;26.13;;;;;;;17.71;100.00;102086.81;5218622;28;20329;-69
2023/06/23 05:35:34;;;;;;;29.08;26.08;;;;;;;17.73;100.00;102093.66;5221819;28;20476;-68
2023/06/23 05:38:09;;;;;;;30.77;26.95;;;;;;;17.85;100.00;102091.66;5217297;28;20021;-69
2023/06/23 05:40:40;;;;;;;31.45;28.05;;;;;;;17.89;100.00;102093.03;5211632;28;20037;-69
2023/06/23 05:43:11;;;;;;;30.45;27.27;;;;;;;17.98;100.00;102094.78;5215386;28;21360;-69
2023/06/23 05:45:43;;;;;;;31.45;28.05;;;;;;;18.08;100.00;102092.09;5219469;28;20032;-68
2023/06/23 05:48:27;;;;;;;31.95;27.73;;;;;;;18.23;100.00;102103.03;5227152;28;20646;-70
2023/06/23 05:51:02;;;;;;;33.55;29.85;;;;;;;18.10;100.00;102090.09;5212938;28;20030;-70
2023/06/23 05:53:36;;;;;;;33.45;28.48;;;;;;;18.19;100.00;102107.78;5217856;28;20026;-69
2023/06/23 05:56:14;;;;;;;32.67;28.83;;;;;;;18.29;100.00;102105.06;5211631;28;20026;-69
2023/06/23 05:58:48;;;;;;;31.77;27.88;;;;;;;18.35;100.00;102103.66;5217983;28;20086;-70
2023/06/23 06:01:23;;;;;;;32.75;28.92;;;;;;;18.36;100.00;102111.44;5205836;28;20192;-69
2023/06/23 06:04:01;;;;;;;34.72;31.20;;;;;;;18.52;100.00;102115.25;5223998;28;20430;-69
2023/06/23 06:06:36;;;;;;;32.92;29.42;;;;;;;18.55;100.00;102113.13;5213693;28;20387;-68
2023/06/23 06:09:10;;;;;;;32.92;29.42;;;;;;;18.60;100.00;102117.97;5214513;28;20445;-69
2023/06/23 06:11:43;;;;;;;34.30;30.63;;;;;;;18.66;100.00;102118.22;5216843;28;20500;-69
2023/06/23 06:14:16;;;;;;;32.72;28.98;;;;;;;18.81;100.00;102130.97;5216416;28;20034;-68
2023/06/23 06:16:50;;;;;;;33.58;29.88;;;;;;;18.78;100.00;102131.28;5215620;28;20121;-68
2023/06/23 06:19:24;;;;;;;33.88;30.42;;;;;;;18.88;100.00;102127.56;5215187;28;20025;-69
2023/06/23 06:21:58;;;;;;;34.83;30.02;;;;;;;18.91;100.00;102127.25;5214849;28;20045;-70
2023/06/23 06:24:30;;;;;;;33.10;29.70;;;;;;;19.05;100.00;102127.69;5214127;28;20040;-69
2023/06/23 06:27:02;;;;;;;;;;;;;;;19.53;100.00;102127.19;5212496;28;20429;-69
2023/06/23 06:29:36;;;;;;;31.25;28.00;;;;;;;19.05;100.00;102128.50;5211907;28;19921;-69
2023/06/23 06:32:09;;;;;;;31.83;28.50;;;;;;;19.08;100.00;102124.72;5219947;28;20036;-69
2023/06/23 06:34:43;;;;;;;31.83;28.52;;;;;;;19.09;100.00;102129.91;5214445;28;20547;-70
2023/06/23 06:37:16;;;;;;;34.70;28.95;;;;;;;19.10;100.00;102138.69;5217028;28;20410;-69
2023/06/23 06:39:48;;;;;;;31.40;28.15;;;;;;;19.23;100.00;102143.59;5216069;28;20049;-68
2023/06/23 06:42:20;;;;;;;32.30;29.00;;;;;;;19.37;100.00;102143.88;5214938;28;20026;-69
2023/06/23 06:44:51;;;;;;;32.33;29.00;;;;;;;19.55;100.00;102154.44;5210816;28;20052;-68
2023/06/23 06:47:24;;;;;;;30.93;27.83;;;;;;;19.61;100.00;102151.16;5209652;28;20045;-69
2023/06/23 06:49:59;;;;;;;30.67;27.65;;;;;;;19.59;100.00;102157.63;5215283;28;20049;-69
2023/06/23 06:52:31;;;;;;;30.17;27.08;;;;;;;19.80;100.00;102162.56;5213605;28;20021;-69
2023/06/23 06:55:03;;;;;;;33.97;29.17;;;;;;;19.92;100.00;102172.78;5211003;28;20021;-69
2023/06/23 06:57:36;;;;;;;31.90;28.65;;;;;;;19.90;100.00;102164.13;5220380;28;20494;-70
2023/06/23 07:00:09;;;;;;;29.05;25.92;;;;;;;19.88;100.00;102162.63;5218784;28;20033;-70
2023/06/23 07:02:43;;;;;;;29.00;26.08;;;;;;;20.03;100.00;102161.03;5211356;28;20033;-70
2023/06/23 07:05:16;;;;;;;31.00;27.70;;;;;;;20.24;100.00;102165.94;5215006;28;20494;-71
2023/06/23 07:07:48;;;;;;;27.80;24.90;;;;;;;20.27;100.00;102176.25;5219159;28;20467;-70
2023/06/23 07:10:19;;;;;;;27.13;24.40;;;;;;;20.48;100.00;102175.81;5210065;28;20031;-69
2023/06/23 07:12:50;;;;;;;26.17;23.43;;;;;;;20.52;100.00;102176.34;5215107;28;20537;-70
2023/06/23 07:15:22;;;;;;;25.60;23.07;;;;;;;20.57;100.00;102180.19;5216876;28;20024;-69
2023/06/23 07:17:53;;;;;;;25.67;22.70;;;;;;;20.75;100.00;102182.69;5212714;28;20025;-69
2023/06/23 07:20:24;;;;;;;24.40;22.07;;;;;;;20.72;100.00;102185.72;5214143;28;20215;-70
2023/06/23 07:22:56;;;;;;;24.20;21.80;;;;;;;20.83;100.00;102181.88;5211793;28;20029;-70
2023/06/23 07:25:27;;;;;;;22.53;19.93;;;;;;;20.90;100.00;102183.72;5214284;28;20082;-70
2023/06/23 07:27:58;;;;;;;21.87;19.63;;;;;;;20.96;100.00;102197.41;5214828;28;20102;-70
2023/06/23 07:30:29;;;;;;;20.43;18.43;;;;;;;21.01;100.00;102192.38;5217961;28;20026;-68
2023/06/23 07:33:01;;;;;;;20.53;18.17;;;;;;;21.06;100.00;102195.38;5212172;28;20026;-70
2023/06/23 07:35:32;;;;;;;22.53;20.37;;;;;;;21.25;100.00;102205.72;5210027;28;20032;-70
2023/06/23 07:38:04;;;;;;;22.43;20.13;;;;;;;21.29;100.00;102200.88;5215035;28;20034;-69
2023/06/23 07:40:35;;;;;;;25.23;20.80;;;;;;;21.42;100.00;102198.56;5211076;28;20194;-69
2023/06/23 07:43:06;;;;;;;20.17;18.27;;;;;;;21.60;100.00;102203.72;5216537;28;20025;-70
2023/06/23 07:45:37;;;;;;;19.80;17.70;;;;;;;21.76;100.00;102208.19;5217554;28;20021;-69
2023/06/23 07:48:09;;;;;;;21.00;18.23;;;;;;;21.82;100.00;102202.16;5212895;28;20411;-70
2023/06/23 07:50:40;;;;;;;17.67;15.90;;;;;;;21.94;100.00;102210.63;5226024;28;20034;-71
2023/06/23 07:53:11;;;;;;;16.77;15.17;;;;;;;21.99;100.00;102206.44;5218128;28;20029;-69
2023/06/23 07:55:43;;;;;;;15.97;14.43;;;;;;;22.10;100.00;102200.72;5218227;28;20555;-70
2023/06/23 07:58:14;;;;;;;16.40;14.77;;;;;;;22.27;100.00;102204.16;5218764;28;20116;-70
2023/06/23 08:00:46;;;;;;;18.70;14.87;;;;;;;22.18;100.00;102207.06;5213484;28;20372;-71
2023/06/23 08:03:17;;;;;;;16.63;14.95;;;;;;;22.29;100.00;102209.34;5224907;28;20061;-70
2023/06/23 08:05:48;;;;;;;16.87;15.27;;;;;;;22.31;100.00;102208.19;5214893;28;20543;-69
2023/06/23 08:08:20;;;;;;;15.13;13.60;;;;;;;22.40;100.00;102206.28;5214162;28;20483;-70
2023/06/23 08:10:51;;;;;;;17.67;15.20;;;;;;;22.38;100.00;102205.63;5207326;28;20109;-71
2023/06/23 08:13:22;;;;;;;16.07;14.47;;;;;;;22.62;100.00;102203.84;5213985;28;20598;-71
2023/06/23 08:15:54;;;;;;;18.40;14.60;;;;;;;22.77;100.00;102210.09;5215994;28;20142;-70
2023/06/23 08:18:25;;;;;;;17.63;15.83;;;;;;;22.80;100.00;102209.72;5219734;28;20136;-70
2023/06/23 08:20:56;;;;;;;17.43;14.33;;;;;;;22.91;100.00;102205.78;5222138;28;20017;-69
2023/06/23 08:23:28;;;;;;;14.67;13.13;;;;;;;23.00;100.00;102216.28;5218672;28;20740;-69
2023/06/23 08:25:59;;;;;;;14.27;12.87;;;;;;;23.14;100.00;102216.50;5218660;28;20053;-69
2023/06/23 08:28:30;;;;;;;13.50;12.10;;;;;;;23.17;100.00;102218.81;5221515;28;20385;-71
2023/06/23 08:31:02;;;;;;;13.30;11.20;;;;;;;23.27;100.00;102216.75;5215579;28;20026;-70
2023/06/23 08:33:34;;;;;;;11.67;10.47;;;;;;;23.40;100.00;102219.63;5220274;28;20104;-70
2023/06/23 08:36:05;;;;;;;11.70;10.55;;;;;;;23.63;100.00;102213.38;5217783;28;20021;-71
2023/06/23 08:38:37;;;;;;;11.67;10.50;;;;;;;23.60;100.00;102229.78;5211038;28;20037;-71
2023/06/23 08:41:09;;;;;;;11.83;9.90;;;;;;;23.77;100.00;102234.84;5208467;28;20034;-71
2023/06/23 08:43:45;;;;;;;10.98;9.27;;;;;;;23.74;100.00;102226.34;5182690;28;20499;-71
2023/06/23 08:46:18;;;;;;;10.00;9.00;;;;;;;23.89;100.00;102234.38;5219269;28;20029;-71
2023/06/23 08:48:51;;;;;;;9.48;8.43;;;;;;;23.96;100.00;102241.50;5216493;28;20060;-71
2023/06/23 08:51:22;;;;;;;;;;;;;;;24.74;100.00;102236.50;5216100;28;20120;-69
2023/06/23 08:53:54;;;;;;;10.02;9.02;;;;;;;24.35;100.00;102244.88;5217002;28;20445;-69
2023/06/23 08:56:26;;;;;;;10.35;8.98;;;;;;;24.46;100.00;102242.56;5216321;28;20116;-71
2023/06/23 08:58:57;;;;;;;11.13;9.50;;;;;;;24.48;100.00;102251.25;5214610;28;20528;-71
2023/06/23 09:01:28;;;;;;;8.47;7.40;;;;;;;24.59;100.00;102249.94;5217245;28;20030;-69
2023/06/23 09:04:00;;;;;;;8.73;7.83;;;;;;;24.56;100.00;102254.84;5215155;28;20032;-69
2023/06/23 09:06:32;;;;;;;8.35;7.40;;;;;;;24.57;100.00;102254.66;5215463;28;20026;-67
2023/06/23 09:09:03;;;;;;;7.53;6.70;;;;;;;24.75;100.00;102257.75;5224965;28;20083;-69
2023/06/23 09:11:34;;;;;;;7.43;5.80;;;;;;;24.74;100.00;102257.94;5217298;28;20037;-69
2023/06/23 09:14:06;;;;;;;6.83;6.13;;;;;;;24.96;100.00;102251.59;5218251;28;20060;-67
2023/06/23 09:16:39;;;;;;;6.55;5.95;;;;;;;25.07;100.00;102250.22;5222456;28;20030;-69
2023/06/23 09:19:11;;;;;;;7.38;6.57;;;;;;;25.09;100.00;102266.13;5219734;28;20025;-70
2023/06/23 09:21:42;;;;;;;6.57;5.97;;;;;;;25.16;100.00;102259.00;5222638;28;20026;-71
2023/06/23 09:24:14;;;;;;;9.63;6.53;;;;;;;25.37;100.00;102263.50;5225523;28;20025;-69
2023/06/23 09:26:52;;;;;;;7.90;6.43;;;;;;;25.54;100.00;102266.75;5216481;28;20435;-70
2023/06/23 09:29:26;;;;;;;7.35;5.97;;;;;;;25.29;100.00;102261.81;5212077;28;20033;-67
2023/06/23 09:31:59;;;;;;;9.98;6.68;;;;;;;25.33;100.00;102267.59;5220434;28;20026;-69
2023/06/23 09:34:34;;;;;;;6.72;6.00;;;;;;;25.58;100.00;102282.28;5226133;28;20100;-68
2023/06/23 09:37:10;;;;;;;10.00;7.53;;;;;;;25.75;100.00;102277.44;5224277;28;20120;-70
2023/06/23 09:39:45;;;;;;;7.53;5.80;;;;;;;25.68;100.00;102285.47;5216664;28;20022;-69
2023/06/23 09:42:17;;;;;;;7.32;5.90;;;;;;;25.66;100.00;102286.66;5219382;28;20476;-69
2023/06/23 09:44:49;;;;;;;7.67;6.30;;;;;;;25.77;100.00;102288.00;5218692;28;20040;-70
2023/06/23 09:47:20;;;;;;;6.80;6.10;;;;;;;25.89;100.00;102287.28;5215867;28;20046;-70
2023/06/23 09:49:51;;;;;;;6.80;6.03;;;;;;;26.00;100.00;102291.25;5215111;28;20449;-69
2023/06/23 09:52:25;;;;;;;7.97;6.43;;;;;;;26.06;100.00;102287.78;5211448;28;20048;-70
2023/06/23 09:54:57;;;;;;;8.25;6.18;;;;;;;26.11;100.00;102282.66;5211811;28;20030;-69
2023/06/23 09:57:30;;;;;;;8.63;6.50;;;;;;;26.17;100.00;102275.63;5218303;28;20041;-69
2023/06/23 10:00:03;;;;;;;6.65;6.03;;;;;;;26.05;100.00;102293.34;5224929;28;20357;-70
2023/06/23 10:02:38;;;;;;;7.70;5.85;;;;;;;26.24;100.00;102281.88;5213499;28;20091;-70
2023/06/23 10:05:10;;;;;;;7.78;5.70;;;;;;;26.08;100.00;102276.84;5218619;28;20052;-69
2023/06/23 10:07:42;;;;;;;5.77;5.17;;;;;;;26.31;100.00;102271.19;5227298;28;20112;-71
2023/06/23 10:10:14;;;;;;;5.75;5.25;;;;;;;26.37;100.00;102276.59;5215678;28;20037;-71
2023/06/23 10:12:46;;;;;;;6.13;5.50;;;;;;;26.31;100.00;102280.06;5213725;28;20029;-72
2023/06/23 10:15:18;;;;;;;6.70;6.00;;;;;;;26.51;100.00;102279.34;5222153;28;20024;-70
2023/06/23 10:17:50;;;;;;;5.70;4.97;;;;;;;26.55;100.00;102277.91;5218524;28;20049;-72
2023/06/23 10:20:21;;;;;;;9.25;6.40;;;;;;;26.56;100.00;102275.03;5217796;28;20030;-72
2023/06/23 10:22:55;;;;;;;9.50;6.43;;;;;;;26.85;100.00;102278.41;5215847;28;20653;-71
2023/06/23 10:25:28;;;;;;;7.00;5.45;;;;;;;26.83;100.00;102277.78;5210949;28;20019;-70
2023/06/23 10:28:03;;;;;;;6.65;5.22;;;;;;;26.81;100.00;102294.13;5213987;28;20030;-71
2023/06/23 10:30:35;;;;;;;5.95;5.38;;;;;;;26.79;100.00;102281.94;5208984;28;20510;-70
2023/06/23 10:33:11;;;;;;;6.27;5.53;;;;;;;26.91;100.00;102278.44;5212502;28;20113;-71
2023/06/23 10:35:44;;;;;;;5.90;4.60;;;;;;;27.08;100.00;102278.84;5220163;28;20771;-72
2023/06/23 10:38:21;;;;;;;6.65;5.78;;;;;;;27.33;100.00;102289.88;5221029;28;20041;-72
2023/06/23 10:40:58;;;;;;;5.47;4.90;;;;;;;27.49;100.00;102285.94;5216459;28;20558;-72
2023/06/23 10:43:32;;;;;;;6.40;4.88;;;;;;;27.36;100.00;102285.97;5213775;28;20456;-72
2023/06/23 10:46:05;;;;;;;6.00;5.40;;;;;;;27.11;100.00;102291.09;5214720;28;20026;-72
2023/06/23 10:48:37;;;;;;;6.45;5.45;;;;;;;27.02;100.00;102286.94;5218240;28;20166;-73
2023/06/23 10:51:10;;;;;;;5.70;5.20;;;;;;;27.25;100.00;102292.78;5216347;28;20025;-70
2023/06/23 10:53:55;;;;;;;6.72;4.75;;;;;;;27.51;100.00;102293.84;5217938;28;20522;-71
2023/06/23 10:56:33;;;;;;;5.80;4.68;;;;;;;27.53;100.00;102291.75;5217648;28;20041;-70
2023/06/23 10:59:18;;;;;;;5.40;4.15;;;;;;;27.83;100.00;102292.16;5211215;28;20479;-70
2023/06/23 11:02:01;;;;;;;6.65;5.15;;;;;;;27.87;100.00;102296.09;5219174;28;20056;-70
2023/06/23 11:04:38;;;;;;;4.78;4.18;;;;;;;27.86;100.00;102294.44;5201390;28;20025;-70
2023/06/23 11:07:14;;;;;;;6.47;3.80;;;;;;;27.86;100.00;102297.13;5216013;28;20372;-70
2023/06/23 11:09:57;;;;;;;4.15;3.58;;;;;;;28.19;100.00;102302.44;5212783;28;20475;-70
2023/06/23 11:12:38;;;;;;;4.93;4.07;;;;;;;28.24;100.00;102299.13;5221565;28;20482;-70
2023/06/23 11:15:13;;;;;;;5.85;4.95;;;;;;;27.98;100.00;102302.72;5207907;28;20490;-73
2023/06/23 11:18:01;;;;;;;6.90;4.70;;;;;;;27.91;100.00;102301.88;5219011;28;20035;-74
2023/06/23 11:20:40;;;;;;;5.07;4.50;;;;;;;28.01;100.00;102310.38;5210214;28;20029;-72
2023/06/23 11:23:12;;;;;;;5.30;4.50;;;;;;;28.21;100.00;102308.44;5217138;28;20424;-70
2023/06/23 11:25:49;;;;;;;5.93;4.65;;;;;;;28.64;100.00;102307.91;5201002;28;20094;-70
2023/06/23 11:28:24;;;;;;;6.97;5.75;;;;;;;28.48;100.00;102309.19;5214451;28;20025;-70
2023/06/23 11:31:06;;;;;;;7.55;5.47;;;;;;;28.53;100.00;102306.72;5213241;28;20038;-72
2023/06/23 11:33:42;;;;;;;6.30;5.60;;;;;;;28.27;100.00;102313.00;5216812;28;20144;-73
2023/06/23 11:36:15;;;;;;;6.22;5.60;;;;;;;28.12;100.00;102309.72;5225447;28;20032;-68
2023/06/23 11:38:47;;;;;;;5.28;4.75;;;;;;;28.58;100.00;102309.56;5210161;28;20041;-70